Aviation Digital Data Service (ADDS)

Output produced by METARs form (1104 UTC 17 June 2019)
found at http://www.aviationweather.gov/metar/data/
 
Forecast for: ZUUU (CHENGDU , CN)
Text: TAF ZUUU 170804Z 1712/1812 20003MPS 5000 BR SCT040 TX26/1808Z TN21/1722Z
Forecast period: 1200 UTC 17 June 2019 to 1200 UTC 18 June 2019
Forecast type: FROM: standard forecast or significant change
Winds: from the SSW (200 degrees) at 7 MPH (6 knots; 3.1 m/s)
Visibility: 3 miles (5 km)
Ceiling: at least 12,000 feet AGL
Clouds: scattered clouds at 4000 feet AGL
Weather: BR  (mist)
Text: TEMPO 1712/1718 -SHRA
Forecast period: 1200 to 1800 UTC 17 June 2019
Forecast type: TEMPORARY: The following changes expected for less than half the time period
Visibility: missing
Ceiling: unknown
Clouds: missing
Weather: -SHRA  (light rain showers)